createdAt,value
2023-04-09T00:01:02.069Z,101995.72
2023-04-09T00:03:29.822Z,101989.75
2023-04-09T00:05:57.564Z,101997.00
2023-04-09T00:08:25.469Z,101993.31
2023-04-09T00:10:53.558Z,101976.88
2023-04-09T00:13:35.592Z,101984.88
2023-04-09T00:16:08.075Z,101991.94
2023-04-09T00:18:35.814Z,101980.84
2023-04-09T00:21:03.594Z,101979.09
2023-04-09T00:23:31.317Z,101993.59
2023-04-09T00:25:58.991Z,101984.78
2023-04-09T00:28:26.747Z,101982.16
2023-04-09T00:30:54.441Z,101980.22
2023-04-09T00:33:23.526Z,101977.69
2023-04-09T00:35:51.256Z,101970.69
2023-04-09T00:38:19.012Z,101976.38
2023-04-09T00:40:50.042Z,101987.63
2023-04-09T00:43:17.918Z,101972.28
2023-04-09T00:45:46.051Z,101974.06
2023-04-09T00:48:14.691Z,101976.38
2023-04-09T00:50:43.918Z,101969.41
2023-04-09T00:53:12.281Z,101970.69
2023-04-09T00:55:41.240Z,101964.06
2023-04-09T00:58:09.478Z,101973.81
2023-04-09T01:00:37.174Z,101975.25
2023-04-09T01:03:06.527Z,101973.63
2023-04-09T01:05:39.979Z,101960.13
2023-04-09T01:08:15.487Z,101953.63
2023-04-09T01:10:44.479Z,101951.41
2023-04-09T01:13:16.710Z,101955.50
2023-04-09T01:15:48.362Z,101956.50
2023-04-09T01:18:22.041Z,101959.59
2023-04-09T01:20:56.580Z,101958.69
2023-04-09T01:23:33.002Z,101957.22
2023-04-09T01:26:05.896Z,101956.00
2023-04-09T01:28:36.544Z,101950.44
2023-04-09T01:31:09.192Z,101955.81
2023-04-09T01:33:38.151Z,101952.44
2023-04-09T01:36:06.672Z,101953.88
2023-04-09T01:38:34.847Z,101949.69
2023-04-09T01:41:03.059Z,101952.47
2023-04-09T01:43:31.700Z,101945.16
2023-04-09T01:46:01.674Z,101942.63
2023-04-09T01:48:30.551Z,101957.81
2023-04-09T01:50:59.099Z,101959.44
2023-04-09T01:53:28.402Z,101964.91
2023-04-09T01:55:56.716Z,101965.13
2023-04-09T01:58:25.862Z,101958.06
2023-04-09T02:00:57.325Z,101952.81
2023-04-09T02:03:28.192Z,101957.69
2023-04-09T02:05:59.679Z,101954.75
2023-04-09T02:08:30.336Z,101954.09
2023-04-09T02:11:00.271Z,101958.94
2023-04-09T02:13:28.587Z,101951.56
2023-04-09T02:15:57.690Z,101954.75
2023-04-09T02:18:28.691Z,101943.75
2023-04-09T02:20:57.150Z,101946.84
2023-04-09T02:23:25.508Z,101932.78
2023-04-09T02:25:54.234Z,101944.59
2023-04-09T02:28:22.016Z,101927.22
2023-04-09T02:30:49.756Z,101934.16
2023-04-09T02:33:17.512Z,101942.75
2023-04-09T02:35:46.680Z,101928.19
2023-04-09T02:38:15.990Z,101937.47
2023-04-09T02:40:44.191Z,101930.47
2023-04-09T02:43:12.045Z,101933.78
2023-04-09T02:45:39.746Z,101934.56
2023-04-09T02:48:07.592Z,101930.09
2023-04-09T02:50:35.274Z,101923.00
2023-04-09T02:53:04.446Z,101923.16
2023-04-09T02:55:32.416Z,101919.78
2023-04-09T02:58:00.202Z,101918.41
2023-04-09T03:00:28.177Z,101916.72
2023-04-09T03:02:56.070Z,101903.66
2023-04-09T03:05:24.375Z,101911.75
2023-04-09T03:07:52.769Z,101912.91
2023-04-09T03:10:21.893Z,101909.28
2023-04-09T03:12:49.651Z,101910.38
2023-04-09T03:15:17.522Z,101915.06
2023-04-09T03:17:45.247Z,101907.16
2023-04-09T03:20:13.064Z,101897.75
2023-04-09T03:22:41.162Z,101899.41
2023-04-09T03:25:09.830Z,101899.59
2023-04-09T03:27:38.871Z,101899.94
2023-04-09T03:30:07.405Z,101908.19
2023-04-09T03:32:35.156Z,101904.34
2023-04-09T03:35:02.814Z,101900.16
2023-04-09T03:37:30.567Z,101901.44
2023-04-09T03:39:58.287Z,101900.75
2023-04-09T03:42:25.964Z,101894.41
2023-04-09T03:44:56.079Z,101899.47
2023-04-09T03:47:23.832Z,101901.66
2023-04-09T03:49:51.630Z,101893.06
2023-04-09T03:52:19.348Z,101899.75
2023-04-09T03:54:47.139Z,101909.13
2023-04-09T03:57:14.830Z,101903.31
2023-04-09T03:59:42.600Z,101903.94
2023-04-09T04:02:11.746Z,101910.84
2023-04-09T04:04:39.493Z,101898.00
2023-04-09T04:07:07.788Z,101908.19
2023-04-09T04:09:35.582Z,101905.66
2023-04-09T04:12:03.366Z,101904.34
2023-04-09T04:14:31.035Z,101898.91
2023-04-09T04:16:58.743Z,101904.28
2023-04-09T04:19:27.847Z,101905.09
2023-04-09T04:21:55.569Z,101901.09
2023-04-09T04:24:23.330Z,101907.22
2023-04-09T04:26:51.069Z,101898.88
2023-04-09T04:29:18.808Z,101895.25
2023-04-09T04:31:46.621Z,101894.03
2023-04-09T04:34:14.397Z,101901.41
2023-04-09T04:36:43.527Z,101907.22
2023-04-09T04:39:11.179Z,101901.81
2023-04-09T04:41:38.894Z,101903.25
2023-04-09T04:44:06.680Z,101892.63
2023-04-09T04:46:34.374Z,101886.22
2023-04-09T04:49:02.119Z,101895.81
2023-04-09T04:51:32.268Z,101906.97
2023-04-09T04:54:01.431Z,101915.06
2023-04-09T04:56:29.141Z,101908.72
2023-04-09T04:58:56.857Z,101908.06
2023-04-09T05:01:24.665Z,101911.84
2023-04-09T05:03:52.517Z,101915.94
2023-04-09T05:06:20.269Z,101917.47
2023-04-09T05:08:47.980Z,101911.69
2023-04-09T05:11:16.996Z,101897.53
2023-04-09T05:13:44.741Z,101898.97
2023-04-09T05:16:17.646Z,101889.44
2023-04-09T05:18:45.412Z,101896.16
2023-04-09T05:21:13.079Z,101886.47
2023-04-09T05:23:40.772Z,101898.75
2023-04-09T05:26:08.408Z,101900.16
2023-04-09T05:28:38.009Z,101907.75
2023-04-09T05:31:07.450Z,101908.44
2023-04-09T05:33:38.204Z,101908.56
2023-04-09T05:36:06.674Z,101913.94
2023-04-09T05:38:34.518Z,101903.72
2023-04-09T05:41:02.207Z,101905.53
2023-04-09T05:43:29.912Z,101900.84
2023-04-09T05:45:59.033Z,101902.81
2023-04-09T05:48:26.804Z,101908.28
2023-04-09T05:50:55.864Z,101900.31
2023-04-09T05:53:23.947Z,101899.88
2023-04-09T05:55:51.658Z,101895.09
2023-04-09T05:58:19.901Z,101903.44
2023-04-09T06:00:47.655Z,101894.59
2023-04-09T06:03:16.841Z,101911.94
2023-04-09T06:05:46.653Z,101904.63
2023-04-09T06:08:14.569Z,101897.03
2023-04-09T06:10:42.279Z,101885.94
2023-04-09T06:13:11.225Z,101882.06
2023-04-09T06:15:39.073Z,101898.66
2023-04-09T06:18:07.001Z,101903.53
2023-04-09T06:21:14.978Z,101909.09
2023-04-09T06:23:42.817Z,101909.78
2023-04-09T06:26:10.617Z,101912.03
2023-04-09T06:28:38.537Z,101915.16
2023-04-09T06:31:06.408Z,101905.72
2023-04-09T06:33:34.184Z,101910.53
2023-04-09T06:36:01.904Z,101926.06
2023-04-09T06:38:31.002Z,101928.88
2023-04-09T06:40:58.725Z,101928.19
2023-04-09T06:43:26.419Z,101924.41
2023-04-09T06:45:54.063Z,101936.09
2023-04-09T06:48:21.803Z,101929.31
2023-04-09T06:50:49.494Z,101915.59
2023-04-09T06:53:17.722Z,101902.38
2023-04-09T06:55:46.935Z,101921.25
2023-04-09T06:58:14.629Z,101929.41
2023-04-09T07:00:42.318Z,101922.22
2023-04-09T07:03:10.111Z,101918.69
2023-04-09T07:05:37.884Z,101942.06
2023-04-09T07:08:06.004Z,101950.13
2023-04-09T07:10:33.815Z,101948.69
2023-04-09T07:13:03.299Z,101949.28
2023-04-09T07:15:31.121Z,101945.94
2023-04-09T07:17:58.876Z,101932.34
2023-04-09T07:20:26.664Z,101926.31
2023-04-09T07:22:54.378Z,101932.94
2023-04-09T07:25:22.374Z,101932.34
2023-04-09T07:27:50.148Z,101939.41
2023-04-09T07:30:19.313Z,101938.84
2023-04-09T07:32:47.203Z,101936.41
2023-04-09T07:35:14.905Z,101948.28
2023-04-09T07:37:42.662Z,101957.50
2023-04-09T07:40:10.844Z,101957.69
2023-04-09T07:42:39.018Z,101944.00
2023-04-09T07:45:08.109Z,101940.06
2023-04-09T07:47:37.154Z,101955.13
2023-04-09T07:50:05.369Z,101963.44
2023-04-09T07:52:33.127Z,101957.72
2023-04-09T07:55:00.879Z,101936.81
2023-04-09T07:57:28.721Z,101955.69
2023-04-09T07:59:56.737Z,101952.63
2023-04-09T08:02:25.169Z,101956.47
2023-04-09T08:04:54.411Z,101963.22
2023-04-09T08:07:22.384Z,101965.56
2023-04-09T08:09:50.616Z,101953.25
2023-04-09T08:12:18.691Z,101949.69
2023-04-09T08:14:46.442Z,101961.94
2023-04-09T08:17:14.115Z,101960.09
2023-04-09T08:19:42.216Z,101956.25
2023-04-09T08:22:11.538Z,101969.03
2023-04-09T08:24:40.248Z,101932.84
2023-04-09T08:27:07.964Z,101956.66
2023-04-09T08:29:35.618Z,101959.69
2023-04-09T08:32:03.371Z,101935.41
2023-04-09T08:34:31.093Z,101953.94
2023-04-09T08:36:58.772Z,101949.94
2023-04-09T08:39:27.932Z,101935.13
2023-04-09T08:42:00.036Z,101924.72
2023-04-09T08:44:27.764Z,101935.97
2023-04-09T08:46:57.067Z,101921.59
2023-04-09T08:49:26.048Z,101945.81
2023-04-09T08:51:53.718Z,101947.97
2023-04-09T08:54:21.382Z,101952.75
2023-04-09T08:56:50.376Z,101941.06
2023-04-09T08:59:19.278Z,101956.56
2023-04-09T09:01:49.504Z,101946.66
2023-04-09T09:04:17.424Z,101944.88
2023-04-09T09:06:45.816Z,101950.22
2023-04-09T09:09:14.650Z,101947.38
2023-04-09T09:11:43.835Z,101943.50
2023-04-09T09:14:13.920Z,101941.84
2023-04-09T09:16:43.877Z,101938.31
2023-04-09T09:19:12.805Z,101940.06
2023-04-09T09:21:40.639Z,101940.94
2023-04-09T09:24:18.149Z,101935.38
2023-04-09T09:26:45.931Z,101921.41
2023-04-09T09:29:15.499Z,101923.38
2023-04-09T09:31:51.663Z,101932.56
2023-04-09T09:34:20.420Z,101926.25
2023-04-09T09:36:48.623Z,101925.56
2023-04-09T09:39:17.842Z,101927.56
2023-04-09T09:41:47.390Z,101921.09
2023-04-09T09:44:33.591Z,101918.34
2023-04-09T09:47:01.862Z,101916.66
2023-04-09T09:49:29.592Z,101921.69
2023-04-09T09:51:58.591Z,101916.16
2023-04-09T09:54:27.131Z,101905.69
2023-04-09T09:56:56.762Z,101908.25
2023-04-09T09:59:26.117Z,101904.63
2023-04-09T10:01:59.952Z,101905.06
2023-04-09T10:04:30.347Z,101908.50
2023-04-09T10:06:59.165Z,101900.91
2023-04-09T10:09:28.466Z,101904.44
2023-04-09T10:11:56.524Z,101895.44
2023-04-09T10:14:24.385Z,101913.84
2023-04-09T10:16:52.313Z,101908.88
2023-04-09T10:19:22.308Z,101910.84
2023-04-09T10:21:54.798Z,101900.31
2023-04-09T10:24:23.142Z,101880.59
2023-04-09T10:26:55.167Z,101883.84
2023-04-09T10:29:52.818Z,101884.97
2023-04-09T10:32:23.535Z,101872.91
2023-04-09T10:34:52.162Z,101875.97
2023-04-09T10:37:22.914Z,101861.66
2023-04-09T10:39:52.491Z,101870.78
2023-04-09T10:42:22.822Z,101864.59
2023-04-09T10:45:06.579Z,101877.66
2023-04-09T10:47:35.913Z,101878.75
2023-04-09T10:50:18.093Z,101878.22
2023-04-09T10:52:46.258Z,101865.75
2023-04-09T10:55:32.314Z,101855.00
2023-04-09T10:58:00.057Z,101852.16
2023-04-09T11:00:29.233Z,101867.66
2023-04-09T11:03:23.802Z,101864.94
2023-04-09T11:05:53.975Z,101861.16
2023-04-09T11:08:22.558Z,101844.88
2023-04-09T11:10:52.387Z,101835.25
2023-04-09T11:13:21.966Z,101819.06
2023-04-09T11:15:51.553Z,101813.09
2023-04-09T11:18:22.623Z,101805.31
2023-04-09T11:20:50.318Z,101805.81
2023-04-09T11:23:18.675Z,101804.28
2023-04-09T11:25:50.122Z,101803.25
2023-04-09T11:28:17.992Z,101809.78
2023-04-09T11:30:46.783Z,101809.25
2023-04-09T11:33:17.497Z,101798.50
2023-04-09T11:35:46.913Z,101806.22
2023-04-09T11:38:14.598Z,101801.13
2023-04-09T11:40:48.235Z,101791.41
2023-04-09T11:43:17.782Z,101811.34
2023-04-09T11:45:47.527Z,101806.44
2023-04-09T11:48:18.106Z,101803.66
2023-04-09T11:50:45.861Z,101789.44
2023-04-09T11:53:18.016Z,101805.44
2023-04-09T11:55:48.374Z,101812.41
2023-04-09T11:58:16.611Z,101810.84
2023-04-09T12:00:45.320Z,101785.63
2023-04-09T12:03:13.594Z,101797.69
2023-04-09T12:05:50.607Z,101802.38
2023-04-09T12:08:24.175Z,101792.72
2023-04-09T12:10:53.628Z,101792.31
2023-04-09T12:13:21.862Z,101781.91
2023-04-09T12:15:50.844Z,101797.56
2023-04-09T12:18:18.585Z,101796.38
2023-04-09T12:20:49.721Z,101795.81
2023-04-09T12:23:17.590Z,101796.69
2023-04-09T12:25:47.634Z,101773.13
2023-04-09T12:28:18.489Z,101778.69
2023-04-09T12:30:46.834Z,101787.56
2023-04-09T12:33:14.580Z,101781.41
2023-04-09T12:35:42.288Z,101782.66
2023-04-09T12:38:11.446Z,101777.22
2023-04-09T12:40:39.462Z,101772.91
2023-04-09T12:43:07.231Z,101776.72
2023-04-09T12:45:35.009Z,101769.94
2023-04-09T12:48:03.034Z,101775.59
2023-04-09T12:50:30.794Z,101785.09
2023-04-09T12:52:58.553Z,101764.75
2023-04-09T12:55:27.918Z,101778.91
2023-04-09T12:57:55.671Z,101786.16
2023-04-09T13:00:23.342Z,101772.97
2023-04-09T13:02:52.633Z,101763.13
2023-04-09T13:05:20.722Z,101768.09
2023-04-09T13:07:48.523Z,101758.84
2023-04-09T13:10:16.360Z,101752.88
2023-04-09T13:12:45.461Z,101749.38
2023-04-09T13:15:13.185Z,101745.66
2023-04-09T13:17:40.945Z,101733.91
2023-04-09T13:20:09.943Z,101731.66
2023-04-09T13:22:37.699Z,101748.56
2023-04-09T13:25:06.229Z,101745.81
2023-04-09T13:27:33.920Z,101753.00
2023-04-09T13:30:02.993Z,101746.81
2023-04-09T13:32:30.691Z,101737.59
2023-04-09T13:34:58.782Z,101732.88
2023-04-09T13:37:27.286Z,101729.63
2023-04-09T13:39:54.961Z,101724.75
2023-04-09T13:42:22.755Z,101733.31
2023-04-09T13:44:50.670Z,101735.78
2023-04-09T13:47:19.754Z,101750.78
2023-04-09T13:49:47.452Z,101719.66
2023-04-09T13:52:15.463Z,101739.81
2023-04-09T13:54:43.137Z,101749.59
2023-04-09T13:57:11.288Z,101755.13
2023-04-09T13:59:39.128Z,101738.22
2023-04-09T14:02:06.944Z,101742.81
2023-04-09T14:04:36.131Z,101738.03
2023-04-09T14:07:03.906Z,101729.53
2023-04-09T14:09:31.964Z,101717.59
2023-04-09T14:11:59.624Z,101722.91
2023-04-09T14:14:27.618Z,101718.63
2023-04-09T14:16:55.395Z,101708.81
2023-04-09T14:19:24.091Z,101711.69
2023-04-09T14:21:54.121Z,101696.56
2023-04-09T14:24:23.175Z,101702.97
2023-04-09T14:26:53.225Z,101710.75
2023-04-09T14:29:22.105Z,101707.44
2023-04-09T14:31:49.915Z,101701.16
2023-04-09T14:34:18.020Z,101697.94
2023-04-09T14:36:45.861Z,101700.63
2023-04-09T14:39:14.878Z,101699.28
2023-04-09T14:41:42.612Z,101688.31
2023-04-09T14:44:10.417Z,101681.06
2023-04-09T14:46:38.175Z,101687.03
2023-04-09T14:49:05.903Z,101677.69
2023-04-09T14:51:34.150Z,101677.78
2023-04-09T14:54:02.190Z,101682.28
2023-04-09T14:56:31.289Z,101677.03
2023-04-09T14:58:59.036Z,101668.94
2023-04-09T15:01:27.743Z,101674.31
2023-04-09T15:03:55.678Z,101679.72
2023-04-09T15:06:23.806Z,101692.53
2023-04-09T15:08:51.759Z,101693.31
2023-04-09T15:11:22.829Z,101681.06
2023-04-09T15:13:52.513Z,101678.94
2023-04-09T15:16:25.025Z,101682.41
2023-04-09T15:18:55.686Z,101680.09
2023-04-09T15:21:23.613Z,101664.09
2023-04-09T15:23:51.765Z,101668.69
2023-04-09T15:26:19.632Z,101644.03
2023-04-09T15:28:47.580Z,101642.53
2023-04-09T15:31:16.948Z,101648.94
2023-04-09T15:33:44.779Z,101655.38
2023-04-09T15:36:12.703Z,101652.31
2023-04-09T15:38:40.455Z,101660.56
2023-04-09T15:41:08.205Z,101630.06
2023-04-09T15:43:36.150Z,101660.47
2023-04-09T15:46:08.793Z,101662.81
2023-04-09T15:48:37.910Z,101652.03
2023-04-09T15:51:06.135Z,101651.41
2023-04-09T15:53:33.845Z,101648.00
2023-04-09T15:56:01.783Z,101631.56
2023-04-09T15:58:29.794Z,101629.97
2023-04-09T16:00:57.600Z,101628.03
2023-04-09T16:03:25.633Z,101623.69
2023-04-09T16:05:54.671Z,101624.81
2023-04-09T16:08:22.455Z,101627.59
2023-04-09T16:10:50.251Z,101631.31
2023-04-09T16:13:17.975Z,101618.38
2023-04-09T16:15:46.790Z,101615.19
2023-04-09T16:18:14.503Z,101615.69
2023-04-09T16:20:42.281Z,101612.25
2023-04-09T16:23:11.379Z,101600.97
2023-04-09T16:25:39.091Z,101605.44
2023-04-09T16:28:06.874Z,101606.91
2023-04-09T16:30:34.571Z,101608.00
2023-04-09T16:33:02.323Z,101599.47
2023-04-09T16:35:30.414Z,101593.28
2023-04-09T16:37:58.046Z,101582.00
2023-04-09T16:40:27.102Z,101583.00
2023-04-09T16:42:54.764Z,101572.50
2023-04-09T16:45:22.563Z,101584.34
2023-04-09T16:47:51.924Z,101589.09
2023-04-09T16:50:21.364Z,101586.03
2023-04-09T16:52:49.389Z,101588.19
2023-04-09T16:55:17.444Z,101573.63
2023-04-09T16:57:46.519Z,101570.94
2023-04-09T17:00:17.414Z,101574.41
2023-04-09T17:02:45.861Z,101580.13
2023-04-09T17:05:13.714Z,101587.69
2023-04-09T17:07:41.355Z,101586.22
2023-04-09T17:10:10.055Z,101581.84
2023-04-09T17:12:38.130Z,101575.84
2023-04-09T17:15:08.599Z,101585.91
2023-04-09T17:17:36.341Z,101595.31
2023-04-09T17:20:04.520Z,101586.09
2023-04-09T17:22:32.353Z,101587.53
2023-04-09T17:25:00.014Z,101591.31
2023-04-09T17:27:27.686Z,101590.66
2023-04-09T17:29:55.504Z,101601.38
2023-04-09T17:32:24.630Z,101596.44
2023-04-09T17:34:52.510Z,101589.41
2023-04-09T17:37:20.499Z,101588.09
2023-04-09T17:39:48.198Z,101587.13
2023-04-09T17:42:16.394Z,101588.81
2023-04-09T17:44:44.035Z,101595.94
2023-04-09T17:47:12.491Z,101592.28
2023-04-09T17:49:42.490Z,101587.03
2023-04-09T17:52:10.227Z,101584.06
2023-04-09T17:54:38.645Z,101604.50
2023-04-09T17:57:07.307Z,101594.31
2023-04-09T17:59:35.376Z,101585.19
2023-04-09T18:02:03.571Z,101591.59
2023-04-09T18:04:31.580Z,101591.19
2023-04-09T18:07:00.787Z,101600.25
2023-04-09T18:09:28.458Z,101584.16
2023-04-09T18:11:56.645Z,101587.66
2023-04-09T18:14:24.713Z,101589.09
2023-04-09T18:16:52.394Z,101582.34
2023-04-09T18:19:20.067Z,101583.38
2023-04-09T18:21:47.753Z,101586.22
2023-04-09T18:24:16.802Z,101593.72
2023-04-09T18:26:44.458Z,101596.97
2023-04-09T18:29:12.696Z,101596.81
2023-04-09T18:31:40.589Z,101597.47
2023-04-09T18:34:08.357Z,101605.06
2023-04-09T18:36:36.107Z,101604.94
2023-04-09T18:39:04.881Z,101608.81
2023-04-09T18:41:33.993Z,101607.09
2023-04-09T18:44:01.885Z,101604.06
2023-04-09T18:46:29.641Z,101611.06
2023-04-09T18:48:57.656Z,101613.31
2023-04-09T18:51:26.226Z,101617.50
2023-04-09T18:53:54.809Z,101615.81
2023-04-09T18:56:22.641Z,101623.38
2023-04-09T18:58:52.450Z,101619.38
2023-04-09T19:01:20.721Z,101623.13
2023-04-09T19:03:48.739Z,101616.09
2023-04-09T19:06:18.037Z,101614.56
2023-04-09T19:08:46.156Z,101620.41
2023-04-09T19:11:14.431Z,101616.47
2023-04-09T19:13:42.110Z,101621.81
2023-04-09T19:16:11.375Z,101622.13
2023-04-09T19:18:39.098Z,101619.44
2023-04-09T19:21:08.020Z,101619.44
2023-04-09T19:23:35.708Z,101616.72
2023-04-09T19:26:04.064Z,101607.16
2023-04-09T19:28:31.803Z,101612.72
2023-04-09T19:31:02.097Z,101620.88
2023-04-09T19:33:32.500Z,101623.66
2023-04-09T19:36:00.424Z,101616.16
2023-04-09T19:38:28.192Z,101611.38
2023-04-09T19:40:55.918Z,101607.56
2023-04-09T19:43:23.775Z,101615.00
2023-04-09T19:45:51.585Z,101607.97
2023-04-09T19:48:19.312Z,101620.66
2023-04-09T19:50:48.937Z,101618.81
2023-04-09T19:53:16.630Z,101619.22
2023-04-09T19:55:44.638Z,101621.59
2023-04-09T19:58:12.434Z,101613.81
2023-04-09T20:00:40.290Z,101617.53
2023-04-09T20:03:08.218Z,101617.66
2023-04-09T20:05:36.057Z,101616.66
2023-04-09T20:08:05.530Z,101620.59
2023-04-09T20:10:33.201Z,101625.66
2023-04-09T20:13:01.639Z,101628.97
2023-04-09T20:15:29.516Z,101626.72
2023-04-09T20:17:57.386Z,101622.38
2023-04-09T20:20:25.120Z,101621.44
2023-04-09T20:22:56.139Z,101615.75
2023-04-09T20:25:26.133Z,101616.28
2023-04-09T20:27:54.455Z,101612.16
2023-04-09T20:30:22.614Z,101601.25
2023-04-09T20:32:50.531Z,101598.78
2023-04-09T20:35:18.357Z,101600.03
2023-04-09T20:37:48.403Z,101590.75
2023-04-09T20:40:16.381Z,101596.53
2023-04-09T20:42:45.480Z,101592.81
2023-04-09T20:45:13.182Z,101581.63
2023-04-09T20:47:40.956Z,101584.03
2023-04-09T20:50:09.413Z,101576.50
2023-04-09T20:52:37.642Z,101575.59
2023-04-09T20:55:06.351Z,101568.59
2023-04-09T20:57:34.428Z,101571.16
2023-04-09T21:00:04.248Z,101577.38
2023-04-09T21:02:32.228Z,101577.94
2023-04-09T21:05:05.455Z,101570.88
2023-04-09T21:07:42.989Z,101569.06
2023-04-09T21:10:11.104Z,101573.59
2023-04-09T21:12:38.820Z,101570.72
2023-04-09T21:15:09.477Z,101575.81
2023-04-09T21:17:37.204Z,101573.50
2023-04-09T21:20:05.778Z,101573.31
2023-04-09T21:22:35.223Z,101580.16
2023-04-09T21:25:04.140Z,101570.75
2023-04-09T21:27:31.836Z,101568.44
2023-04-09T21:29:59.769Z,101565.06
2023-04-09T21:32:28.868Z,101561.94
2023-04-09T21:34:56.622Z,101552.00
2023-04-09T21:37:25.047Z,101553.84
2023-04-09T21:39:53.137Z,101550.31
2023-04-09T21:42:21.231Z,101557.78
2023-04-09T21:44:48.966Z,101556.81
2023-04-09T21:47:16.758Z,101551.47
2023-04-09T21:49:46.480Z,101553.84
2023-04-09T21:52:15.160Z,101552.03
2023-04-09T21:54:43.125Z,101556.88
2023-04-09T21:57:10.933Z,101561.22
2023-04-09T21:59:41.180Z,101558.78
2023-04-09T22:02:09.531Z,101573.00
2023-04-09T22:04:37.522Z,101568.59
2023-04-09T22:07:06.719Z,101566.44
2023-04-09T22:09:34.460Z,101558.41
2023-04-09T22:12:02.746Z,101557.97
2023-04-09T22:14:32.373Z,101570.06
2023-04-09T22:17:01.645Z,101559.94
2023-04-09T22:19:31.259Z,101560.19
2023-04-09T22:21:59.318Z,101561.91
2023-04-09T22:24:30.098Z,101573.78
2023-04-09T22:26:58.927Z,101570.34
2023-04-09T22:29:27.763Z,101573.47
2023-04-09T22:31:55.731Z,101574.50
2023-04-09T22:34:23.419Z,101580.97
2023-04-09T22:36:51.553Z,101581.94
2023-04-09T22:39:19.363Z,101582.28
2023-04-09T22:41:48.439Z,101589.22
2023-04-09T22:44:16.158Z,101584.00
2023-04-09T22:46:43.938Z,101582.00
2023-04-09T22:49:12.347Z,101586.81
2023-04-09T22:51:41.785Z,101587.69
2023-04-09T22:54:09.977Z,101586.66
2023-04-09T22:56:37.875Z,101589.16
2023-04-09T22:59:07.161Z,101590.31
2023-04-09T23:01:35.093Z,101585.16
2023-04-09T23:04:02.818Z,101585.25
2023-04-09T23:06:31.263Z,101583.53
2023-04-09T23:08:59.870Z,101568.66
2023-04-09T23:11:28.220Z,101564.47
2023-04-09T23:13:56.011Z,101563.75
2023-04-09T23:16:25.139Z,101562.66
2023-04-09T23:18:53.159Z,101564.31
2023-04-09T23:21:21.059Z,101552.16
2023-04-09T23:23:48.958Z,101548.78
2023-04-09T23:26:16.677Z,101534.94
2023-04-09T23:28:44.382Z,101538.31
2023-04-09T23:31:12.198Z,101540.34
2023-04-09T23:33:41.286Z,101536.13
2023-04-09T23:36:09.667Z,101535.91
2023-04-09T23:38:37.406Z,101530.53
2023-04-09T23:41:05.586Z,101520.06
2023-04-09T23:43:33.764Z,101517.38
2023-04-09T23:46:01.492Z,101520.28
2023-04-09T23:48:29.140Z,101527.16
2023-04-09T23:50:58.170Z,101524.56
2023-04-09T23:53:26.308Z,101526.91
2023-04-09T23:55:53.978Z,101529.72
2023-04-09T23:58:22.399Z,101526.53
